createdAt,value
2023-02-18T00:00:51.347Z,9.41
2023-02-18T00:01:51.341Z,9.41
2023-02-18T00:02:52.766Z,9.40
2023-02-18T00:03:51.387Z,9.40
2023-02-18T00:04:51.292Z,9.40
2023-02-18T00:05:51.292Z,9.40
2023-02-18T00:06:51.278Z,9.41
2023-02-18T00:07:51.264Z,9.43
2023-02-18T00:08:51.261Z,9.41
2023-02-18T00:09:51.235Z,9.41
2023-02-18T00:10:51.237Z,9.41
2023-02-18T00:11:51.218Z,9.41
2023-02-18T00:12:51.212Z,9.41
2023-02-18T00:13:51.180Z,9.43
2023-02-18T00:14:51.174Z,9.44
2023-02-18T00:15:51.242Z,9.41
2023-02-18T00:16:51.154Z,9.41
2023-02-18T00:17:51.135Z,9.41
2023-02-18T00:18:51.147Z,9.41
2023-02-18T00:19:51.111Z,9.37
2023-02-18T00:20:51.097Z,9.39
2023-02-18T00:21:51.080Z,9.39
2023-02-18T00:22:51.071Z,9.37
2023-02-18T00:23:51.056Z,9.36
2023-02-18T00:24:51.050Z,9.37
2023-02-18T00:25:51.026Z,9.36
2023-02-18T00:26:51.012Z,9.37
2023-02-18T00:27:51.010Z,9.36
2023-02-18T00:28:50.984Z,9.36
2023-02-18T00:29:50.972Z,9.36
2023-02-18T00:30:50.975Z,9.34
2023-02-18T00:31:51.177Z,9.34
2023-02-18T00:32:50.942Z,9.34
2023-02-18T00:33:50.924Z,9.34
2023-02-18T00:34:50.939Z,9.34
2023-02-18T00:35:50.903Z,9.32
2023-02-18T00:36:50.886Z,9.34
2023-02-18T00:37:50.878Z,9.32
2023-02-18T00:38:50.869Z,9.32
2023-02-18T00:39:50.852Z,9.32
2023-02-18T00:40:50.833Z,9.32
2023-02-18T00:41:50.823Z,9.32
2023-02-18T00:42:50.811Z,9.31
2023-02-18T00:43:50.794Z,9.29
2023-02-18T00:44:50.783Z,9.28
2023-02-18T00:45:50.773Z,9.29
2023-02-18T00:46:50.774Z,9.28
2023-02-18T00:47:50.750Z,9.26
2023-02-18T00:48:50.736Z,9.28
2023-02-18T00:49:50.721Z,9.26
2023-02-18T00:50:50.735Z,9.26
2023-02-18T00:51:50.693Z,9.25
2023-02-18T00:52:50.688Z,9.26
2023-02-18T00:53:50.661Z,9.28
2023-02-18T00:54:50.652Z,9.28
2023-02-18T00:55:50.642Z,9.28
2023-02-18T00:56:50.642Z,9.26
2023-02-18T00:57:50.614Z,9.28
2023-02-18T00:58:50.608Z,9.26
2023-02-18T00:59:50.590Z,9.26
2023-02-18T01:00:50.581Z,9.26
2023-02-18T01:01:50.615Z,9.26
2023-02-18T01:02:50.565Z,9.28
2023-02-18T01:03:50.543Z,9.28
2023-02-18T01:04:50.598Z,9.28
2023-02-18T01:05:50.518Z,9.26
2023-02-18T01:06:50.524Z,9.25
2023-02-18T01:07:50.494Z,9.25
2023-02-18T01:08:50.476Z,9.25
2023-02-18T01:09:50.473Z,9.25
2023-02-18T01:10:50.463Z,9.23
2023-02-18T01:11:50.462Z,9.25
2023-02-18T01:12:50.421Z,9.25
2023-02-18T01:13:50.417Z,9.28
2023-02-18T01:14:50.395Z,9.29
2023-02-18T01:15:50.403Z,9.31
2023-02-18T01:16:50.375Z,9.34
2023-02-18T01:17:50.365Z,9.34
2023-02-18T01:18:50.355Z,9.34
2023-02-18T01:19:50.337Z,9.34
2023-02-18T01:20:50.329Z,9.34
2023-02-18T01:21:50.308Z,9.36
2023-02-18T01:22:50.324Z,9.34
2023-02-18T01:23:50.301Z,9.32
2023-02-18T01:24:50.267Z,9.31
2023-02-18T01:25:50.272Z,9.32
2023-02-18T01:26:50.243Z,9.29
2023-02-18T01:27:50.250Z,9.28
2023-02-18T01:28:50.223Z,9.28
2023-02-18T01:29:50.212Z,9.26
2023-02-18T01:30:51.984Z,9.25
2023-02-18T01:31:50.363Z,9.23
2023-02-18T01:32:50.188Z,9.21
2023-02-18T01:33:50.153Z,9.19
2023-02-18T01:34:50.142Z,9.18
2023-02-18T01:35:50.140Z,9.19
2023-02-18T01:36:50.113Z,9.16
2023-02-18T01:37:50.114Z,9.16
2023-02-18T01:38:50.119Z,9.14
2023-02-18T01:39:50.080Z,9.13
2023-02-18T01:40:50.061Z,9.13
2023-02-18T01:41:50.055Z,9.13
2023-02-18T01:42:50.039Z,9.10
2023-02-18T01:43:50.032Z,9.11
2023-02-18T01:44:50.014Z,9.08
2023-02-18T01:45:50.000Z,9.06
2023-02-18T01:46:50.015Z,9.06
2023-02-18T01:47:49.976Z,9.06
2023-02-18T01:48:49.952Z,9.06
2023-02-18T01:49:49.944Z,9.03
2023-02-18T01:50:49.937Z,9.04
2023-02-18T01:51:49.928Z,9.04
2023-02-18T01:52:49.908Z,9.04
2023-02-18T01:53:49.891Z,9.04
2023-02-18T01:54:49.913Z,9.03
2023-02-18T01:55:49.877Z,9.03
2023-02-18T01:56:49.870Z,9.03
2023-02-18T01:57:49.847Z,9.03
2023-02-18T01:58:49.824Z,9.03
2023-02-18T01:59:49.815Z,9.04
2023-02-18T02:00:49.867Z,9.06
2023-02-18T02:01:49.809Z,9.08
2023-02-18T02:02:49.782Z,9.10
2023-02-18T02:03:49.768Z,9.10
2023-02-18T02:04:49.758Z,9.08
2023-02-18T02:05:49.731Z,9.10
2023-02-18T02:06:49.727Z,9.11
2023-02-18T02:07:49.716Z,9.13
2023-02-18T02:08:49.700Z,9.13
2023-02-18T02:09:49.696Z,9.13
2023-02-18T02:10:49.697Z,9.13
2023-02-18T02:11:49.673Z,9.14
2023-02-18T02:12:49.643Z,9.13
2023-02-18T02:13:49.642Z,9.14
2023-02-18T02:14:49.625Z,9.11
2023-02-18T02:15:49.604Z,9.13
2023-02-18T02:16:49.598Z,9.11
2023-02-18T02:17:49.579Z,9.10
2023-02-18T02:18:49.571Z,9.10
2023-02-18T02:19:49.551Z,9.08
2023-02-18T02:20:49.545Z,9.08
2023-02-18T02:21:49.648Z,9.08
2023-02-18T02:22:49.528Z,9.08
2023-02-18T02:23:49.508Z,9.08
2023-02-18T02:24:49.490Z,9.08
2023-02-18T02:25:49.481Z,9.06
2023-02-18T02:26:49.503Z,9.06
2023-02-18T02:27:49.458Z,9.08
2023-02-18T02:28:49.439Z,9.08
2023-02-18T02:29:49.422Z,9.04
2023-02-18T02:30:49.421Z,9.04
2023-02-18T02:31:49.426Z,9.04
2023-02-18T02:32:49.386Z,9.04
2023-02-18T02:33:49.373Z,9.04
2023-02-18T02:34:49.418Z,9.03
2023-02-18T02:35:49.357Z,9.04
2023-02-18T02:36:49.341Z,9.02
2023-02-18T02:37:49.330Z,9.00
2023-02-18T02:38:49.318Z,8.99
2023-02-18T02:39:49.296Z,9.00
2023-02-18T02:40:49.289Z,8.99
2023-02-18T02:41:49.276Z,8.99
2023-02-18T02:42:49.282Z,8.97
2023-02-18T02:43:49.247Z,9.00
2023-02-18T02:44:49.231Z,8.99
2023-02-18T02:45:49.352Z,8.99
2023-02-18T02:46:49.217Z,9.00
2023-02-18T02:47:49.193Z,8.99
2023-02-18T02:48:49.189Z,9.02
2023-02-18T02:49:49.172Z,9.02
2023-02-18T02:50:49.164Z,9.03
2023-02-18T02:51:49.153Z,9.02
2023-02-18T02:52:49.139Z,9.03
2023-02-18T02:53:49.122Z,9.02
2023-02-18T02:54:49.198Z,9.03
2023-02-18T02:55:49.110Z,9.02
2023-02-18T02:56:49.083Z,9.03
2023-02-18T02:57:49.080Z,9.00
2023-02-18T02:58:49.085Z,9.02
2023-02-18T02:59:49.043Z,8.99
2023-02-18T03:00:49.062Z,9.00
2023-02-18T03:01:49.038Z,9.00
2023-02-18T03:02:49.014Z,9.00
2023-02-18T03:03:48.998Z,9.00
2023-02-18T03:04:48.977Z,9.00
2023-02-18T03:05:48.970Z,9.02
2023-02-18T03:06:48.950Z,9.00
2023-02-18T03:07:48.947Z,9.00
2023-02-18T03:08:48.932Z,8.99
2023-02-18T03:09:48.912Z,9.00
2023-02-18T03:10:48.899Z,9.03
2023-02-18T03:11:48.894Z,9.02
2023-02-18T03:12:48.876Z,9.02
2023-02-18T03:13:48.861Z,9.03
2023-02-18T03:14:48.868Z,9.00
2023-02-18T03:15:48.843Z,8.99
2023-02-18T03:16:48.934Z,8.99
2023-02-18T03:17:48.850Z,8.99
2023-02-18T03:18:48.804Z,8.99
2023-02-18T03:19:48.781Z,8.95
2023-02-18T03:20:48.779Z,8.95
2023-02-18T03:21:48.757Z,8.97
2023-02-18T03:22:48.765Z,8.95
2023-02-18T03:23:48.743Z,8.95
2023-02-18T03:24:48.739Z,8.94
2023-02-18T03:25:48.721Z,8.97
2023-02-18T03:26:48.700Z,8.97
2023-02-18T03:27:48.698Z,8.95
2023-02-18T03:28:48.684Z,8.97
2023-02-18T03:29:48.665Z,8.94
2023-02-18T03:30:48.676Z,8.95
2023-02-18T03:31:48.731Z,8.95
2023-02-18T03:32:48.622Z,8.95
2023-02-18T03:33:48.616Z,8.95
2023-02-18T03:34:48.622Z,8.97
2023-02-18T03:35:48.579Z,8.97
2023-02-18T03:36:48.570Z,8.97
2023-02-18T03:37:48.556Z,8.99
2023-02-18T03:38:48.546Z,8.99
2023-02-18T03:39:48.537Z,9.00
2023-02-18T03:40:48.521Z,9.00
2023-02-18T03:41:48.505Z,9.03
2023-02-18T03:42:48.497Z,9.02
2023-02-18T03:43:48.473Z,9.03
2023-02-18T03:44:48.483Z,9.03
2023-02-18T03:45:48.497Z,9.03
2023-02-18T03:46:48.473Z,9.02
2023-02-18T03:47:48.429Z,9.02
2023-02-18T03:48:48.416Z,9.00
2023-02-18T03:49:48.411Z,9.00
2023-02-18T03:50:48.396Z,8.99
2023-02-18T03:51:48.377Z,9.00
2023-02-18T03:52:48.375Z,9.00
2023-02-18T03:53:48.360Z,8.99
2023-02-18T03:54:48.338Z,9.00
2023-02-18T03:55:48.344Z,8.97
2023-02-18T03:56:48.314Z,8.97
2023-02-18T03:57:48.288Z,8.99
2023-02-18T03:58:48.285Z,8.97
2023-02-18T03:59:48.272Z,8.95
2023-02-18T04:00:48.263Z,8.97
2023-02-18T04:01:48.253Z,8.94
2023-02-18T04:02:48.251Z,8.95
2023-02-18T04:03:48.211Z,8.94
2023-02-18T04:04:48.206Z,8.97
2023-02-18T04:05:48.190Z,8.94
2023-02-18T04:06:48.180Z,8.97
2023-02-18T04:07:48.166Z,8.95
2023-02-18T04:08:48.147Z,8.95
2023-02-18T04:09:48.140Z,8.95
2023-02-18T04:10:48.120Z,8.99
2023-02-18T04:11:48.117Z,8.99
2023-02-18T04:12:48.099Z,8.99
2023-02-18T04:13:48.080Z,9.00
2023-02-18T04:14:48.084Z,9.00
2023-02-18T04:15:48.062Z,9.00
2023-02-18T04:16:48.074Z,8.99
2023-02-18T04:17:48.029Z,9.00
2023-02-18T04:18:48.136Z,8.99
2023-02-18T04:19:48.006Z,8.99
2023-02-18T04:20:47.996Z,8.97
2023-02-18T04:21:47.980Z,8.97
2023-02-18T04:22:47.964Z,8.95
2023-02-18T04:23:47.962Z,8.95
2023-02-18T04:24:47.939Z,8.94
2023-02-18T04:25:47.949Z,8.94
2023-02-18T04:26:47.912Z,8.94
2023-02-18T04:27:47.906Z,8.91
2023-02-18T04:28:47.885Z,8.92
2023-02-18T04:29:47.870Z,8.91
2023-02-18T04:30:48.103Z,8.92
2023-02-18T04:31:47.996Z,8.91
2023-02-18T04:32:47.839Z,8.88
2023-02-18T04:33:47.824Z,8.89
2023-02-18T04:34:47.845Z,8.89
2023-02-18T04:35:47.815Z,8.88
2023-02-18T04:36:47.788Z,8.87
2023-02-18T04:37:47.767Z,8.87
2023-02-18T04:38:47.768Z,8.87
2023-02-18T04:39:47.760Z,8.85
2023-02-18T04:40:47.735Z,8.87
2023-02-18T04:41:47.727Z,8.87
2023-02-18T04:42:47.721Z,8.85
2023-02-18T04:43:47.689Z,8.87
2023-02-18T04:44:47.811Z,8.88
2023-02-18T04:45:47.734Z,8.88
2023-02-18T04:46:47.663Z,8.88
2023-02-18T04:47:47.640Z,8.88
2023-02-18T04:48:47.627Z,8.87
2023-02-18T04:49:47.615Z,8.85
2023-02-18T04:50:47.624Z,8.85
2023-02-18T04:51:47.594Z,8.85
2023-02-18T04:52:47.584Z,8.84
2023-02-18T04:53:47.570Z,8.81
2023-02-18T04:54:47.556Z,8.84
2023-02-18T04:55:47.536Z,8.84
2023-02-18T04:56:47.522Z,8.82
2023-02-18T04:57:47.518Z,8.84
2023-02-18T04:58:47.497Z,8.82
2023-02-18T04:59:47.493Z,8.82
2023-02-18T05:00:47.480Z,8.84
2023-02-18T05:01:47.491Z,8.82
2023-02-18T05:02:47.453Z,8.84
2023-02-18T05:03:47.514Z,8.84
2023-02-18T05:04:47.428Z,8.84
2023-02-18T05:05:47.410Z,8.85
2023-02-18T05:06:47.421Z,8.84
2023-02-18T05:07:47.385Z,8.82
2023-02-18T05:08:47.374Z,8.81
2023-02-18T05:09:47.372Z,8.81
2023-02-18T05:10:47.353Z,8.81
2023-02-18T05:11:47.339Z,8.81
2023-02-18T05:12:47.326Z,8.82
2023-02-18T05:13:47.313Z,8.81
2023-02-18T05:14:47.295Z,8.84
2023-02-18T05:15:47.325Z,8.85
2023-02-18T05:16:47.278Z,8.85
2023-02-18T05:17:47.269Z,8.87
2023-02-18T05:18:47.253Z,8.85
2023-02-18T05:19:47.233Z,8.85
2023-02-18T05:20:47.228Z,8.85
2023-02-18T05:21:47.208Z,8.84
2023-02-18T05:22:47.219Z,8.85
2023-02-18T05:23:47.202Z,8.84
2023-02-18T05:24:47.171Z,8.84
2023-02-18T05:25:47.163Z,8.84
2023-02-18T05:26:47.155Z,8.82
2023-02-18T05:27:47.129Z,8.82
2023-02-18T05:28:47.149Z,8.81
2023-02-18T05:29:47.116Z,8.81
2023-02-18T05:30:47.176Z,8.79
2023-02-18T05:31:47.176Z,8.79
2023-02-18T05:32:47.068Z,8.81
2023-02-18T05:33:47.054Z,8.81
2023-02-18T05:34:47.039Z,8.81
2023-02-18T05:35:47.027Z,8.81
2023-02-18T05:36:47.023Z,8.79
2023-02-18T05:37:47.024Z,8.81
2023-02-18T05:38:47.014Z,8.79
2023-02-18T05:39:46.976Z,8.79
2023-02-18T05:40:46.960Z,8.79
2023-02-18T05:41:46.954Z,8.78
2023-02-18T05:42:46.934Z,8.78
2023-02-18T05:43:46.928Z,8.78
2023-02-18T05:44:46.919Z,8.76
2023-02-18T05:45:46.897Z,8.76
2023-02-18T05:46:46.924Z,8.76
2023-02-18T05:47:46.876Z,8.73
2023-02-18T05:48:46.864Z,8.73
2023-02-18T05:49:46.843Z,8.74
2023-02-18T05:50:46.831Z,8.74
2023-02-18T05:51:46.822Z,8.74
2023-02-18T05:52:46.805Z,8.74
2023-02-18T05:53:46.799Z,8.74
2023-02-18T05:54:46.810Z,8.73
2023-02-18T05:55:46.782Z,8.73
2023-02-18T05:56:46.776Z,8.73
2023-02-18T05:57:46.747Z,8.74
2023-02-18T05:58:46.731Z,8.73
2023-02-18T05:59:46.727Z,8.74
2023-02-18T06:00:46.705Z,8.74
2023-02-18T06:01:46.701Z,8.74
2023-02-18T06:02:46.756Z,8.73
2023-02-18T06:03:46.669Z,8.71
2023-02-18T06:04:46.662Z,8.73
2023-02-18T06:05:46.671Z,8.71
2023-02-18T06:06:46.629Z,8.71
2023-02-18T06:07:46.619Z,8.74
2023-02-18T06:08:46.605Z,8.73
2023-02-18T06:09:46.582Z,8.71
2023-02-18T06:10:46.623Z,8.73
2023-02-18T06:11:46.570Z,8.73
2023-02-18T06:12:46.555Z,8.71
2023-02-18T06:13:46.532Z,8.71
2023-02-18T06:14:46.529Z,8.71
2023-02-18T06:15:46.514Z,8.70
2023-02-18T06:16:46.494Z,8.71
2023-02-18T06:17:46.479Z,8.70
2023-02-18T06:18:46.489Z,8.71
2023-02-18T06:19:46.458Z,8.70
2023-02-18T06:20:46.443Z,8.69
2023-02-18T06:21:46.436Z,8.69
2023-02-18T06:22:46.415Z,8.67
2023-02-18T06:23:46.426Z,8.67
2023-02-18T06:24:46.408Z,8.66
2023-02-18T06:25:46.402Z,8.69
2023-02-18T06:26:46.395Z,8.69
2023-02-18T06:27:46.393Z,8.69
2023-02-18T06:28:46.350Z,8.69
2023-02-18T06:29:46.335Z,8.70
2023-02-18T06:30:46.316Z,8.70
2023-02-18T06:31:46.456Z,8.70
2023-02-18T06:32:46.288Z,8.70
2023-02-18T06:33:46.283Z,8.71
2023-02-18T06:34:46.260Z,8.71
2023-02-18T06:35:46.245Z,8.71
2023-02-18T06:36:46.242Z,8.71
2023-02-18T06:37:46.222Z,8.70
2023-02-18T06:38:46.217Z,8.71
2023-02-18T06:39:46.192Z,8.71
2023-02-18T06:40:46.187Z,8.70
2023-02-18T06:41:46.173Z,8.69
2023-02-18T06:42:46.198Z,8.67
2023-02-18T06:43:46.153Z,8.67
2023-02-18T06:44:46.126Z,8.67
2023-02-18T06:45:46.120Z,8.69
2023-02-18T06:46:46.140Z,8.67
2023-02-18T06:47:46.085Z,8.73
2023-02-18T06:48:46.087Z,8.74
2023-02-18T06:49:46.066Z,8.73
2023-02-18T06:50:46.055Z,8.73
2023-02-18T06:51:46.042Z,8.74
2023-02-18T06:52:46.032Z,8.78
2023-02-18T06:53:46.011Z,8.78
2023-02-18T06:54:46.004Z,8.78
2023-02-18T06:55:45.982Z,8.79
2023-02-18T06:56:45.986Z,8.81
2023-02-18T06:57:45.956Z,8.79
2023-02-18T06:58:45.968Z,8.78
2023-02-18T06:59:45.939Z,8.78
2023-02-18T07:00:45.950Z,8.78
2023-02-18T07:01:45.902Z,8.79
2023-02-18T07:02:45.901Z,8.79
2023-02-18T07:03:47.808Z,8.79
2023-02-18T07:04:45.866Z,8.81
2023-02-18T07:05:45.873Z,8.79
2023-02-18T07:06:45.843Z,8.81
2023-02-18T07:07:45.837Z,8.81
2023-02-18T07:08:45.831Z,8.81
2023-02-18T07:09:45.802Z,8.81
2023-02-18T07:10:45.799Z,8.82
2023-02-18T07:11:45.789Z,8.82
2023-02-18T07:12:45.766Z,8.84
2023-02-18T07:13:45.749Z,8.87
2023-02-18T07:14:45.762Z,8.87
2023-02-18T07:15:45.722Z,8.88
2023-02-18T07:16:45.845Z,8.89
2023-02-18T07:17:45.697Z,8.91
2023-02-18T07:18:45.704Z,8.91
2023-02-18T07:19:45.674Z,8.91
2023-02-18T07:20:45.664Z,8.92
2023-02-18T07:21:45.650Z,8.94
2023-02-18T07:22:45.646Z,8.97
2023-02-18T07:23:45.620Z,8.97
2023-02-18T07:24:45.627Z,8.97
2023-02-18T07:25:45.610Z,9.00
2023-02-18T07:26:45.600Z,9.02
2023-02-18T07:27:45.576Z,9.02
2023-02-18T07:28:45.561Z,9.04
2023-02-18T07:29:45.553Z,9.04
2023-02-18T07:30:45.561Z,9.08
2023-02-18T07:31:45.595Z,9.08
2023-02-18T07:32:45.501Z,9.06
2023-02-18T07:33:45.495Z,9.10
2023-02-18T07:34:45.484Z,9.11
2023-02-18T07:35:45.471Z,9.10
2023-02-18T07:36:45.451Z,9.11
2023-02-18T07:37:45.445Z,9.13
2023-02-18T07:38:45.424Z,9.14
2023-02-18T07:39:45.421Z,9.18
2023-02-18T07:40:45.399Z,9.18
2023-02-18T07:41:45.391Z,9.19
2023-02-18T07:42:45.375Z,9.22
2023-02-18T07:43:45.368Z,9.22
2023-02-18T07:44:45.352Z,9.25
2023-02-18T07:45:45.432Z,9.26
2023-02-18T07:46:47.348Z,9.28
2023-02-18T07:47:45.323Z,9.32
2023-02-18T07:48:45.311Z,9.34
2023-02-18T07:49:45.289Z,9.36
2023-02-18T07:50:45.280Z,9.37
2023-02-18T07:51:45.264Z,9.40
2023-02-18T07:52:45.260Z,9.40
2023-02-18T07:53:45.256Z,9.43
2023-02-18T07:54:45.224Z,9.46
2023-02-18T07:55:45.215Z,9.51
2023-02-18T07:56:45.206Z,9.54
2023-02-18T07:57:45.180Z,9.58
2023-02-18T07:58:45.174Z,9.62
2023-02-18T07:59:45.166Z,9.65
2023-02-18T08:00:45.151Z,9.69
2023-02-18T08:01:45.296Z,9.73
2023-02-18T08:02:45.339Z,9.77
2023-02-18T08:03:45.261Z,9.80
2023-02-18T08:04:45.093Z,9.86
2023-02-18T08:05:45.093Z,9.91
2023-02-18T08:06:45.071Z,9.98
2023-02-18T08:07:45.070Z,10.04
2023-02-18T08:08:45.048Z,10.10
2023-02-18T08:09:45.037Z,10.16
2023-02-18T08:10:45.034Z,10.20
2023-02-18T08:11:45.009Z,10.28
2023-02-18T08:12:45.002Z,10.34
2023-02-18T08:13:46.980Z,10.41
2023-02-18T08:14:44.981Z,10.49
2023-02-18T08:15:44.957Z,10.56
2023-02-18T08:16:45.052Z,10.59
2023-02-18T08:17:44.940Z,10.63
2023-02-18T08:18:44.955Z,10.67
2023-02-18T08:19:44.901Z,10.63
2023-02-18T08:20:44.892Z,10.56
2023-02-18T08:21:44.881Z,10.53
2023-02-18T08:22:44.865Z,10.51
2023-02-18T08:23:44.856Z,10.49
2023-02-18T08:24:44.846Z,10.49
2023-02-18T08:25:44.836Z,10.53
2023-02-18T08:26:59.372Z,10.51
2023-02-18T08:27:45.843Z,10.54
2023-02-18T08:28:44.810Z,10.56
2023-02-18T08:29:44.784Z,10.57
2023-02-18T08:30:44.872Z,10.56
2023-02-18T08:31:45.101Z,10.56
2023-02-18T08:32:44.742Z,10.56
2023-02-18T08:33:44.731Z,10.56
2023-02-18T08:34:44.746Z,10.57
2023-02-18T08:35:44.707Z,10.57
2023-02-18T08:36:44.691Z,10.56
2023-02-18T08:37:52.886Z,10.56
2023-02-18T08:38:45.733Z,10.59
2023-02-18T08:39:44.675Z,10.63
2023-02-18T08:40:44.645Z,10.63
2023-02-18T08:41:44.632Z,10.64
2023-02-18T08:42:44.620Z,10.68
2023-02-18T08:43:44.608Z,10.69
2023-02-18T08:44:44.585Z,10.72
2023-02-18T08:45:44.683Z,10.74
2023-02-18T08:46:44.617Z,10.78
2023-02-18T08:48:18.285Z,10.82
2023-02-18T08:48:45.568Z,10.79
2023-02-18T08:49:44.523Z,10.82
2023-02-18T08:50:44.530Z,10.84
2023-02-18T08:51:44.513Z,10.84
2023-02-18T08:52:44.498Z,10.82
2023-02-18T08:53:44.475Z,10.84
2023-02-18T08:54:44.467Z,10.87
2023-02-18T08:55:44.441Z,10.89
2023-02-18T08:56:44.432Z,10.87
2023-02-18T08:57:44.415Z,10.89
2023-02-18T08:58:44.414Z,10.89
2023-02-18T08:59:44.390Z,10.90
2023-02-18T09:00:44.376Z,10.90
2023-02-18T09:01:44.423Z,10.94
2023-02-18T09:02:44.352Z,10.97
2023-02-18T09:03:44.364Z,11.05
2023-02-18T09:04:44.327Z,11.10
2023-02-18T09:05:44.321Z,11.12
2023-02-18T09:06:44.324Z,11.11
2023-02-18T09:07:44.291Z,11.12
2023-02-18T09:08:44.287Z,11.10
2023-02-18T09:09:44.271Z,11.05
2023-02-18T09:10:46.243Z,11.07
2023-02-18T09:11:44.251Z,11.12
2023-02-18T09:12:44.231Z,11.14
2023-02-18T09:13:44.226Z,11.11
2023-02-18T09:14:44.214Z,11.11
2023-02-18T09:15:44.237Z,11.10
2023-02-18T09:16:44.185Z,11.07
2023-02-18T09:17:44.190Z,11.05
2023-02-18T09:18:44.150Z,11.05
2023-02-18T09:19:44.138Z,11.07
2023-02-18T09:20:44.124Z,11.07
2023-02-18T09:21:44.107Z,11.14
2023-02-18T09:22:44.139Z,11.17
2023-02-18T09:23:44.089Z,11.22
2023-02-18T09:24:44.080Z,11.25
2023-02-18T09:25:44.062Z,11.23
2023-02-18T09:26:44.047Z,11.19
2023-02-18T09:27:44.036Z,11.18
2023-02-18T09:28:44.023Z,11.18
2023-02-18T09:29:44.007Z,11.22
2023-02-18T09:30:44.060Z,11.19
2023-02-18T09:31:44.053Z,11.17
2023-02-18T09:32:43.968Z,11.17
2023-02-18T09:33:45.824Z,11.22
2023-02-18T09:34:43.936Z,11.26
2023-02-18T09:35:43.939Z,11.29
2023-02-18T09:36:43.917Z,11.27
2023-02-18T09:37:43.906Z,11.29
2023-02-18T09:38:43.922Z,11.23
2023-02-18T09:39:43.900Z,11.29
2023-02-18T09:40:43.860Z,11.35
2023-02-18T09:41:43.856Z,11.35
2023-02-18T09:42:43.833Z,11.36
2023-02-18T09:43:43.920Z,11.35
2023-02-18T09:44:43.814Z,11.37
2023-02-18T09:45:43.794Z,11.36
2023-02-18T09:46:43.802Z,11.40
2023-02-18T09:47:43.779Z,11.36
2023-02-18T09:48:43.766Z,11.37
2023-02-18T09:49:43.750Z,11.41
2023-02-18T09:50:43.740Z,11.47
2023-02-18T09:51:43.715Z,11.48
2023-02-18T09:52:43.719Z,11.47
2023-02-18T09:53:43.689Z,11.52
2023-02-18T09:54:43.702Z,11.52
2023-02-18T09:55:43.676Z,11.48
2023-02-18T09:56:43.664Z,11.43
2023-02-18T09:57:43.642Z,11.45
2023-02-18T09:58:43.631Z,11.48
2023-02-18T09:59:43.620Z,11.48
2023-02-18T10:00:43.617Z,11.54
2023-02-18T10:01:43.629Z,11.57
2023-02-18T10:02:43.584Z,11.59
2023-02-18T10:03:43.583Z,11.66
2023-02-18T10:04:43.563Z,11.70
2023-02-18T10:05:43.547Z,11.73
2023-02-18T10:06:43.526Z,11.69
2023-02-18T10:07:43.541Z,11.68
2023-02-18T10:08:43.511Z,11.66
2023-02-18T10:09:43.505Z,11.66
2023-02-18T10:10:43.518Z,11.68
2023-02-18T10:11:43.490Z,11.66
2023-02-18T10:12:43.456Z,11.66
2023-02-18T10:13:43.455Z,11.69
2023-02-18T10:14:43.450Z,11.72
2023-02-18T10:15:43.574Z,11.77
2023-02-18T10:16:43.402Z,11.81
2023-02-18T10:17:43.395Z,11.90
2023-02-18T10:18:43.383Z,11.95
2023-02-18T10:19:43.367Z,11.97
2023-02-18T10:20:43.371Z,11.97
2023-02-18T10:21:43.339Z,12.04
2023-02-18T10:22:43.342Z,12.06
2023-02-18T10:23:43.325Z,12.07
2023-02-18T10:24:43.323Z,12.09
2023-02-18T10:25:43.310Z,12.10
2023-02-18T10:26:43.334Z,12.12
2023-02-18T10:27:43.283Z,12.09
2023-02-18T10:28:43.255Z,12.13
2023-02-18T10:29:43.237Z,12.13
2023-02-18T10:30:43.236Z,12.10
2023-02-18T10:31:43.345Z,12.12
2023-02-18T10:32:43.204Z,12.13
2023-02-18T10:33:43.195Z,12.15
2023-02-18T10:34:43.182Z,12.20
2023-02-18T10:35:43.160Z,12.22
2023-02-18T10:36:43.147Z,12.22
2023-02-18T10:37:43.137Z,12.20
2023-02-18T10:38:43.120Z,12.20
2023-02-18T10:39:43.117Z,12.24
2023-02-18T10:40:43.104Z,12.28
2023-02-18T10:41:43.097Z,12.31
2023-02-18T10:42:43.092Z,12.39
2023-02-18T10:43:43.080Z,12.45
2023-02-18T10:44:43.049Z,12.46
2023-02-18T10:45:43.036Z,12.49
2023-02-18T10:46:43.070Z,12.42
2023-02-18T10:47:43.025Z,12.37
2023-02-18T10:48:42.990Z,12.37
2023-02-18T10:49:42.986Z,12.40
2023-02-18T10:50:42.978Z,12.39
2023-02-18T10:51:42.961Z,12.39
2023-02-18T10:52:42.944Z,12.37
2023-02-18T10:53:42.925Z,12.36
2023-02-18T10:54:42.913Z,12.39
2023-02-18T10:55:42.901Z,12.39
2023-02-18T10:56:42.901Z,12.42
2023-02-18T10:57:42.878Z,12.40
2023-02-18T10:58:42.899Z,12.39
2023-02-18T10:59:42.857Z,12.31
2023-02-18T11:00:42.854Z,12.28
2023-02-18T11:01:42.985Z,12.24
2023-02-18T11:02:42.816Z,12.22
2023-02-18T11:03:42.826Z,12.21
2023-02-18T11:04:42.909Z,12.27
2023-02-18T11:05:42.773Z,12.27
2023-02-18T11:06:42.764Z,12.25
2023-02-18T11:07:42.763Z,12.24
2023-02-18T11:08:42.739Z,12.24
2023-02-18T11:09:45.034Z,12.24
2023-02-18T11:10:42.723Z,12.20
2023-02-18T11:11:43.973Z,12.22
2023-02-18T11:12:42.708Z,12.25
2023-02-18T11:13:42.668Z,12.28
2023-02-18T11:14:42.708Z,12.31
2023-02-18T11:15:42.669Z,12.28
2023-02-18T11:16:42.634Z,12.31
2023-02-18T11:17:42.620Z,12.32
2023-02-18T11:18:42.610Z,12.27
2023-02-18T11:19:42.589Z,12.32
2023-02-18T11:20:42.586Z,12.37
2023-02-18T11:21:42.585Z,12.36
2023-02-18T11:22:42.560Z,12.35
2023-02-18T11:23:42.551Z,12.35
2023-02-18T11:24:42.537Z,12.39
2023-02-18T11:25:42.521Z,12.45
2023-02-18T11:26:42.503Z,12.47
2023-02-18T11:27:42.487Z,12.47
2023-02-18T11:28:42.485Z,12.45
2023-02-18T11:29:42.473Z,12.50
2023-02-18T11:30:42.487Z,12.57
2023-02-18T11:31:42.588Z,12.64
2023-02-18T11:32:42.432Z,12.67
2023-02-18T11:33:42.422Z,12.73
2023-02-18T11:34:42.400Z,12.78
2023-02-18T11:35:42.392Z,12.82
2023-02-18T11:36:42.386Z,12.80
2023-02-18T11:37:42.360Z,12.83
2023-02-18T11:38:42.350Z,12.83
2023-02-18T11:39:42.338Z,12.80
2023-02-18T11:40:42.334Z,12.78
2023-02-18T11:41:42.330Z,12.70
2023-02-18T11:42:42.304Z,12.60
2023-02-18T11:43:42.291Z,12.49
2023-02-18T11:44:42.270Z,12.42
2023-02-18T11:45:42.259Z,12.40
2023-02-18T11:46:42.339Z,12.36
2023-02-18T11:47:42.237Z,12.35
2023-02-18T11:48:42.224Z,12.31
2023-02-18T11:49:42.213Z,12.32
2023-02-18T11:50:42.208Z,12.31
2023-02-18T11:51:42.201Z,12.35
2023-02-18T11:52:42.165Z,12.42
2023-02-18T11:53:42.165Z,12.45
2023-02-18T11:54:42.142Z,12.43
2023-02-18T11:55:42.136Z,12.42
2023-02-18T11:56:42.115Z,12.49
2023-02-18T11:57:42.109Z,12.54
2023-02-18T11:58:42.092Z,12.50
2023-02-18T11:59:42.096Z,12.54
2023-02-18T12:00:42.072Z,12.55
2023-02-18T12:01:42.118Z,12.57
2023-02-18T12:02:42.071Z,12.55
2023-02-18T12:03:42.029Z,12.58
2023-02-18T12:04:42.025Z,12.57
2023-02-18T12:05:42.010Z,12.55
2023-02-18T12:06:41.993Z,12.57
2023-02-18T12:07:41.977Z,12.62
2023-02-18T12:08:41.975Z,12.65
2023-02-18T12:09:41.966Z,12.75
2023-02-18T12:10:41.949Z,12.83
2023-02-18T12:11:41.940Z,12.98
2023-02-18T12:12:41.915Z,12.95
2023-02-18T12:13:41.903Z,13.01
2023-02-18T12:14:41.888Z,13.01
2023-02-18T12:15:41.883Z,12.97
2023-02-18T12:16:41.920Z,12.98
2023-02-18T12:17:41.868Z,13.05
2023-02-18T12:18:42.959Z,13.13
2023-02-18T12:19:41.834Z,13.12
2023-02-18T12:20:41.833Z,13.13
2023-02-18T12:21:41.797Z,13.16
2023-02-18T12:22:41.790Z,13.22
2023-02-18T12:23:41.782Z,13.22
2023-02-18T12:24:41.777Z,13.33
2023-02-18T12:25:41.754Z,13.28
2023-02-18T12:26:41.746Z,13.25
2023-02-18T12:27:41.727Z,13.27
2023-02-18T12:28:41.709Z,13.31
2023-02-18T12:29:41.706Z,13.39
2023-02-18T12:30:41.686Z,13.47
2023-02-18T12:31:41.757Z,13.52
2023-02-18T12:32:41.671Z,13.57
2023-02-18T12:33:41.655Z,13.63
2023-02-18T12:34:41.680Z,13.62
2023-02-18T12:35:41.620Z,13.65
2023-02-18T12:36:41.610Z,13.68
2023-02-18T12:37:41.587Z,13.68
2023-02-18T12:38:41.585Z,13.68
2023-02-18T12:39:41.586Z,13.46
2023-02-18T12:40:41.550Z,13.37
2023-02-18T12:41:41.556Z,13.35
2023-02-18T12:42:41.521Z,13.33
2023-02-18T12:43:41.515Z,13.27
2023-02-18T12:44:44.085Z,13.23
2023-02-18T12:45:41.508Z,13.20
2023-02-18T12:46:41.481Z,13.22
2023-02-18T12:47:41.463Z,13.22
2023-02-18T12:48:41.453Z,13.22
2023-02-18T12:49:41.433Z,13.19
2023-02-18T12:50:41.460Z,13.19
2023-02-18T12:51:41.404Z,13.16
2023-02-18T12:52:41.634Z,13.11
2023-02-18T12:53:41.385Z,12.97
2023-02-18T12:54:41.377Z,12.85
2023-02-18T12:55:41.356Z,12.82
2023-02-18T12:56:41.354Z,12.79
2023-02-18T12:57:41.333Z,12.73
2023-02-18T12:58:41.323Z,12.68
2023-02-18T12:59:41.308Z,12.67
2023-02-18T13:00:41.297Z,12.64
2023-02-18T13:01:41.283Z,12.64
2023-02-18T13:02:41.276Z,12.70
2023-02-18T13:03:41.255Z,12.72
2023-02-18T13:04:41.257Z,12.67
2023-02-18T13:05:41.231Z,12.67
2023-02-18T13:06:41.249Z,12.64
2023-02-18T13:07:41.207Z,12.62
2023-02-18T13:08:41.197Z,12.61